sensor_id;sensor_type;location;lat;lon;timestamp;temperature;humidity
15426;DHT22;7812;50.072;7.036;2023-06-14T00:02:03;12.60;99.90
15426;DHT22;7812;50.072;7.036;2023-06-14T00:04:29;12.60;99.90
15426;DHT22;7812;50.072;7.036;2023-06-14T00:06:55;12.60;99.90
15426;DHT22;7812;50.072;7.036;2023-06-14T00:09:22;12.60;99.90
15426;DHT22;7812;50.072;7.036;2023-06-14T00:11:48;12.60;99.90
15426;DHT22;7812;50.072;7.036;2023-06-14T00:14:13;12.60;99.90
15426;DHT22;7812;50.072;7.036;2023-06-14T00:16:40;12.50;99.90
15426;DHT22;7812;50.072;7.036;2023-06-14T00:19:10;12.40;99.90
15426;DHT22;7812;50.072;7.036;2023-06-14T00:21:37;12.40;99.90
15426;DHT22;7812;50.072;7.036;2023-06-14T00:24:03;12.40;99.90
15426;DHT22;7812;50.072;7.036;2023-06-14T00:26:30;12.50;99.90
15426;DHT22;7812;50.072;7.036;2023-06-14T00:28:56;12.50;99.90
15426;DHT22;7812;50.072;7.036;2023-06-14T00:31:22;12.50;99.90
15426;DHT22;7812;50.072;7.036;2023-06-14T00:33:48;12.30;99.90
15426;DHT22;7812;50.072;7.036;2023-06-14T00:36:14;12.30;99.90
15426;DHT22;7812;50.072;7.036;2023-06-14T00:38:40;12.30;99.90
15426;DHT22;7812;50.072;7.036;2023-06-14T00:41:06;12.20;99.90
15426;DHT22;7812;50.072;7.036;2023-06-14T00:43:31;12.30;99.90
15426;DHT22;7812;50.072;7.036;2023-06-14T00:45:57;12.20;99.90
15426;DHT22;7812;50.072;7.036;2023-06-14T00:48:23;12.10;99.90
15426;DHT22;7812;50.072;7.036;2023-06-14T00:50:50;12.10;99.90
15426;DHT22;7812;50.072;7.036;2023-06-14T00:53:18;12.10;99.90
15426;DHT22;7812;50.072;7.036;2023-06-14T00:55:46;12.10;99.90
15426;DHT22;7812;50.072;7.036;2023-06-14T00:58:12;12.10;99.90
15426;DHT22;7812;50.072;7.036;2023-06-14T01:00:39;12.00;99.90
15426;DHT22;7812;50.072;7.036;2023-06-14T01:03:04;12.10;99.90
15426;DHT22;7812;50.072;7.036;2023-06-14T01:05:31;12.10;99.90
15426;DHT22;7812;50.072;7.036;2023-06-14T01:11:01;12.10;99.90
15426;DHT22;7812;50.072;7.036;2023-06-14T01:13:46;11.90;99.90
15426;DHT22;7812;50.072;7.036;2023-06-14T01:16:12;11.80;99.90
15426;DHT22;7812;50.072;7.036;2023-06-14T01:18:39;11.80;99.90
15426;DHT22;7812;50.072;7.036;2023-06-14T01:21:23;11.80;99.90
15426;DHT22;7812;50.072;7.036;2023-06-14T01:23:49;11.70;99.90
15426;DHT22;7812;50.072;7.036;2023-06-14T01:26:19;11.80;99.90
15426;DHT22;7812;50.072;7.036;2023-06-14T01:28:46;11.70;99.90
15426;DHT22;7812;50.072;7.036;2023-06-14T01:31:20;11.70;99.90
15426;DHT22;7812;50.072;7.036;2023-06-14T01:33:48;11.70;99.90
15426;DHT22;7812;50.072;7.036;2023-06-14T01:36:16;11.60;99.90
15426;DHT22;7812;50.072;7.036;2023-06-14T01:38:43;11.60;99.90
15426;DHT22;7812;50.072;7.036;2023-06-14T01:41:10;11.60;99.90
15426;DHT22;7812;50.072;7.036;2023-06-14T01:43:36;11.50;99.90
15426;DHT22;7812;50.072;7.036;2023-06-14T01:46:03;11.50;99.90
15426;DHT22;7812;50.072;7.036;2023-06-14T01:48:29;11.50;99.90
15426;DHT22;7812;50.072;7.036;2023-06-14T01:50:55;11.50;99.90
15426;DHT22;7812;50.072;7.036;2023-06-14T01:53:20;11.50;99.90
15426;DHT22;7812;50.072;7.036;2023-06-14T01:55:46;11.50;99.90
15426;DHT22;7812;50.072;7.036;2023-06-14T01:58:14;11.40;99.90
15426;DHT22;7812;50.072;7.036;2023-06-14T02:00:41;11.50;99.90
15426;DHT22;7812;50.072;7.036;2023-06-14T02:03:08;11.50;99.90
15426;DHT22;7812;50.072;7.036;2023-06-14T02:05:34;11.50;99.90
15426;DHT22;7812;50.072;7.036;2023-06-14T02:08:00;11.50;99.90
15426;DHT22;7812;50.072;7.036;2023-06-14T02:10:26;11.40;99.90
15426;DHT22;7812;50.072;7.036;2023-06-14T02:12:51;11.40;99.90
15426;DHT22;7812;50.072;7.036;2023-06-14T02:15:17;11.30;99.90
15426;DHT22;7812;50.072;7.036;2023-06-14T02:17:47;11.30;99.90
15426;DHT22;7812;50.072;7.036;2023-06-14T02:20:14;11.10;99.90
15426;DHT22;7812;50.072;7.036;2023-06-14T02:22:40;11.00;99.90
15426;DHT22;7812;50.072;7.036;2023-06-14T02:25:06;11.00;99.90
15426;DHT22;7812;50.072;7.036;2023-06-14T02:27:33;11.00;99.90
15426;DHT22;7812;50.072;7.036;2023-06-14T02:29:59;11.10;99.90
15426;DHT22;7812;50.072;7.036;2023-06-14T02:32:25;11.10;99.90
15426;DHT22;7812;50.072;7.036;2023-06-14T02:34:53;11.10;99.90
15426;DHT22;7812;50.072;7.036;2023-06-14T02:37:19;11.10;99.90
15426;DHT22;7812;50.072;7.036;2023-06-14T02:39:44;11.10;99.90
15426;DHT22;7812;50.072;7.036;2023-06-14T02:42:11;11.00;99.90
15426;DHT22;7812;50.072;7.036;2023-06-14T02:44:36;11.00;99.90
15426;DHT22;7812;50.072;7.036;2023-06-14T02:47:03;10.90;99.90
15426;DHT22;7812;50.072;7.036;2023-06-14T02:49:28;10.90;99.90
15426;DHT22;7812;50.072;7.036;2023-06-14T02:51:55;10.90;99.90
15426;DHT22;7812;50.072;7.036;2023-06-14T02:54:21;10.90;99.90
15426;DHT22;7812;50.072;7.036;2023-06-14T02:56:47;10.90;99.90
15426;DHT22;7812;50.072;7.036;2023-06-14T02:59:12;10.80;99.90
15426;DHT22;7812;50.072;7.036;2023-06-14T03:01:39;10.70;99.90
15426;DHT22;7812;50.072;7.036;2023-06-14T03:04:07;10.60;99.90
15426;DHT22;7812;50.072;7.036;2023-06-14T03:06:33;10.60;99.90
15426;DHT22;7812;50.072;7.036;2023-06-14T03:08:59;10.50;99.90
15426;DHT22;7812;50.072;7.036;2023-06-14T03:11:27;10.60;99.90
15426;DHT22;7812;50.072;7.036;2023-06-14T03:13:53;10.60;99.90
15426;DHT22;7812;50.072;7.036;2023-06-14T03:16:19;10.50;99.90
15426;DHT22;7812;50.072;7.036;2023-06-14T03:18:45;10.50;99.90
15426;DHT22;7812;50.072;7.036;2023-06-14T03:21:11;10.60;99.90
15426;DHT22;7812;50.072;7.036;2023-06-14T03:23:37;10.70;99.90
15426;DHT22;7812;50.072;7.036;2023-06-14T03:26:02;10.60;99.90
15426;DHT22;7812;50.072;7.036;2023-06-14T03:28:28;10.70;99.90
15426;DHT22;7812;50.072;7.036;2023-06-14T03:30:54;10.70;99.90
15426;DHT22;7812;50.072;7.036;2023-06-14T03:33:20;10.70;99.90
15426;DHT22;7812;50.072;7.036;2023-06-14T03:35:46;10.70;99.90
15426;DHT22;7812;50.072;7.036;2023-06-14T03:38:12;10.70;99.90
15426;DHT22;7812;50.072;7.036;2023-06-14T03:40:38;10.60;99.90
15426;DHT22;7812;50.072;7.036;2023-06-14T03:43:03;10.60;99.90
15426;DHT22;7812;50.072;7.036;2023-06-14T03:45:29;10.70;99.90
15426;DHT22;7812;50.072;7.036;2023-06-14T03:47:55;10.70;99.90
15426;DHT22;7812;50.072;7.036;2023-06-14T03:50:21;10.70;99.90
15426;DHT22;7812;50.072;7.036;2023-06-14T03:52:48;10.70;99.90
15426;DHT22;7812;50.072;7.036;2023-06-14T03:55:14;10.70;99.90
15426;DHT22;7812;50.072;7.036;2023-06-14T03:57:41;10.70;99.90
15426;DHT22;7812;50.072;7.036;2023-06-14T04:00:10;10.70;99.90
15426;DHT22;7812;50.072;7.036;2023-06-14T04:02:38;10.70;99.90
15426;DHT22;7812;50.072;7.036;2023-06-14T04:05:03;10.70;99.90
15426;DHT22;7812;50.072;7.036;2023-06-14T04:07:30;10.70;99.90
15426;DHT22;7812;50.072;7.036;2023-06-14T04:09:56;10.80;99.90
15426;DHT22;7812;50.072;7.036;2023-06-14T04:12:22;10.80;99.90
15426;DHT22;7812;50.072;7.036;2023-06-14T04:14:47;10.80;99.90
15426;DHT22;7812;50.072;7.036;2023-06-14T04:17:14;10.70;99.90
15426;DHT22;7812;50.072;7.036;2023-06-14T04:19:39;10.80;99.90
15426;DHT22;7812;50.072;7.036;2023-06-14T04:22:05;10.90;99.90
15426;DHT22;7812;50.072;7.036;2023-06-14T04:24:31;11.00;99.90
15426;DHT22;7812;50.072;7.036;2023-06-14T04:27:00;11.00;99.90
15426;DHT22;7812;50.072;7.036;2023-06-14T04:29:26;11.10;99.90
15426;DHT22;7812;50.072;7.036;2023-06-14T04:31:55;11.20;99.90
15426;DHT22;7812;50.072;7.036;2023-06-14T04:34:27;11.30;99.90
15426;DHT22;7812;50.072;7.036;2023-06-14T04:36:58;11.20;99.90
15426;DHT22;7812;50.072;7.036;2023-06-14T04:39:25;11.20;99.90
15426;DHT22;7812;50.072;7.036;2023-06-14T04:41:51;11.30;99.90
15426;DHT22;7812;50.072;7.036;2023-06-14T04:44:18;11.40;99.90
15426;DHT22;7812;50.072;7.036;2023-06-14T04:46:45;11.40;99.90
15426;DHT22;7812;50.072;7.036;2023-06-14T04:49:15;11.30;99.90
15426;DHT22;7812;50.072;7.036;2023-06-14T04:51:43;11.10;99.90
15426;DHT22;7812;50.072;7.036;2023-06-14T04:54:09;11.10;99.90
15426;DHT22;7812;50.072;7.036;2023-06-14T04:56:38;11.30;99.90
15426;DHT22;7812;50.072;7.036;2023-06-14T04:59:03;11.60;99.90
15426;DHT22;7812;50.072;7.036;2023-06-14T05:01:32;11.70;99.90
15426;DHT22;7812;50.072;7.036;2023-06-14T05:03:58;11.90;99.90
15426;DHT22;7812;50.072;7.036;2023-06-14T05:06:24;12.10;99.90
15426;DHT22;7812;50.072;7.036;2023-06-14T05:08:51;12.30;99.90
15426;DHT22;7812;50.072;7.036;2023-06-14T05:11:17;12.50;99.90
15426;DHT22;7812;50.072;7.036;2023-06-14T05:13:43;12.60;99.90
15426;DHT22;7812;50.072;7.036;2023-06-14T05:19:32;12.80;99.90
15426;DHT22;7812;50.072;7.036;2023-06-14T05:21:59;13.00;99.90
15426;DHT22;7812;50.072;7.036;2023-06-14T05:24:26;13.10;99.90
15426;DHT22;7812;50.072;7.036;2023-06-14T05:30:01;13.40;99.90
15426;DHT22;7812;50.072;7.036;2023-06-14T05:32:26;13.90;99.90
15426;DHT22;7812;50.072;7.036;2023-06-14T05:34:52;14.10;99.90
15426;DHT22;7812;50.072;7.036;2023-06-14T05:37:17;14.40;99.90
15426;DHT22;7812;50.072;7.036;2023-06-14T05:39:43;14.70;99.90
15426;DHT22;7812;50.072;7.036;2023-06-14T05:42:09;15.00;99.90
15426;DHT22;7812;50.072;7.036;2023-06-14T05:44:34;15.40;99.90
15426;DHT22;7812;50.072;7.036;2023-06-14T05:47:00;15.90;99.90
15426;DHT22;7812;50.072;7.036;2023-06-14T05:49:26;15.90;99.90
15426;DHT22;7812;50.072;7.036;2023-06-14T05:52:13;16.20;99.90
15426;DHT22;7812;50.072;7.036;2023-06-14T05:54:39;16.40;99.90
15426;DHT22;7812;50.072;7.036;2023-06-14T05:57:05;16.60;99.90
15426;DHT22;7812;50.072;7.036;2023-06-14T05:59:31;17.00;99.90
15426;DHT22;7812;50.072;7.036;2023-06-14T06:01:57;17.30;99.90
15426;DHT22;7812;50.072;7.036;2023-06-14T06:04:23;17.40;99.90
15426;DHT22;7812;50.072;7.036;2023-06-14T06:06:49;17.80;99.90
15426;DHT22;7812;50.072;7.036;2023-06-14T06:09:17;18.40;99.90
15426;DHT22;7812;50.072;7.036;2023-06-14T06:11:44;18.60;99.90
15426;DHT22;7812;50.072;7.036;2023-06-14T06:14:10;19.10;99.90
15426;DHT22;7812;50.072;7.036;2023-06-14T06:16:35;19.30;99.90
15426;DHT22;7812;50.072;7.036;2023-06-14T06:19:01;19.60;99.90
15426;DHT22;7812;50.072;7.036;2023-06-14T06:21:27;20.20;99.90
15426;DHT22;7812;50.072;7.036;2023-06-14T06:23:53;20.20;99.90
15426;DHT22;7812;50.072;7.036;2023-06-14T06:29:42;20.90;99.90
15426;DHT22;7812;50.072;7.036;2023-06-14T06:32:09;21.80;99.90
15426;DHT22;7812;50.072;7.036;2023-06-14T06:34:34;21.00;99.90
15426;DHT22;7812;50.072;7.036;2023-06-14T06:37:02;21.40;99.90
15426;DHT22;7812;50.072;7.036;2023-06-14T06:39:28;22.10;99.90
15426;DHT22;7812;50.072;7.036;2023-06-14T06:41:53;23.10;99.90
15426;DHT22;7812;50.072;7.036;2023-06-14T06:44:21;23.80;99.90
15426;DHT22;7812;50.072;7.036;2023-06-14T06:46:46;23.90;99.90
15426;DHT22;7812;50.072;7.036;2023-06-14T06:49:12;23.20;99.90
15426;DHT22;7812;50.072;7.036;2023-06-14T06:51:41;23.80;99.90
15426;DHT22;7812;50.072;7.036;2023-06-14T06:54:07;24.20;99.90
15426;DHT22;7812;50.072;7.036;2023-06-14T06:56:34;24.20;99.90
15426;DHT22;7812;50.072;7.036;2023-06-14T06:59:00;24.60;99.90
15426;DHT22;7812;50.072;7.036;2023-06-14T07:01:26;24.10;99.90
15426;DHT22;7812;50.072;7.036;2023-06-14T07:03:54;24.20;99.90
15426;DHT22;7812;50.072;7.036;2023-06-14T07:06:20;24.60;99.90
15426;DHT22;7812;50.072;7.036;2023-06-14T07:08:46;23.80;99.90
15426;DHT22;7812;50.072;7.036;2023-06-14T07:11:14;23.90;99.90
15426;DHT22;7812;50.072;7.036;2023-06-14T07:13:39;24.10;99.90
15426;DHT22;7812;50.072;7.036;2023-06-14T07:16:05;24.40;99.90
15426;DHT22;7812;50.072;7.036;2023-06-14T07:18:31;24.80;99.90
15426;DHT22;7812;50.072;7.036;2023-06-14T07:20:57;24.90;99.90
15426;DHT22;7812;50.072;7.036;2023-06-14T07:23:23;25.20;99.90
15426;DHT22;7812;50.072;7.036;2023-06-14T07:25:49;25.70;99.90
15426;DHT22;7812;50.072;7.036;2023-06-14T07:28:16;25.60;99.90
15426;DHT22;7812;50.072;7.036;2023-06-14T07:30:41;25.50;99.90
15426;DHT22;7812;50.072;7.036;2023-06-14T07:33:07;25.40;99.90
15426;DHT22;7812;50.072;7.036;2023-06-14T07:35:33;25.40;99.90
15426;DHT22;7812;50.072;7.036;2023-06-14T07:37:59;26.10;99.90
15426;DHT22;7812;50.072;7.036;2023-06-14T07:40:28;26.10;99.90
15426;DHT22;7812;50.072;7.036;2023-06-14T07:42:53;25.80;99.90
15426;DHT22;7812;50.072;7.036;2023-06-14T07:45:20;25.50;99.90
15426;DHT22;7812;50.072;7.036;2023-06-14T07:47:46;25.20;99.90
15426;DHT22;7812;50.072;7.036;2023-06-14T07:50:12;25.20;99.90
15426;DHT22;7812;50.072;7.036;2023-06-14T07:52:39;24.90;99.90
15426;DHT22;7812;50.072;7.036;2023-06-14T07:55:05;25.60;99.90
15426;DHT22;7812;50.072;7.036;2023-06-14T07:57:31;25.60;99.90
15426;DHT22;7812;50.072;7.036;2023-06-14T07:59:57;25.90;99.90
15426;DHT22;7812;50.072;7.036;2023-06-14T08:02:22;26.20;99.90
15426;DHT22;7812;50.072;7.036;2023-06-14T08:04:48;27.20;99.60
15426;DHT22;7812;50.072;7.036;2023-06-14T08:07:14;26.00;99.80
15426;DHT22;7812;50.072;7.036;2023-06-14T08:09:40;26.00;99.50
15426;DHT22;7812;50.072;7.036;2023-06-14T08:12:06;26.00;99.80
15426;DHT22;7812;50.072;7.036;2023-06-14T08:14:33;26.30;99.90
15426;DHT22;7812;50.072;7.036;2023-06-14T08:16:59;27.60;98.60
15426;DHT22;7812;50.072;7.036;2023-06-14T08:19:25;26.90;97.70
15426;DHT22;7812;50.072;7.036;2023-06-14T08:21:51;27.10;97.50
15426;DHT22;7812;50.072;7.036;2023-06-14T08:24:16;28.00;97.30
15426;DHT22;7812;50.072;7.036;2023-06-14T08:26:43;27.70;96.40
15426;DHT22;7812;50.072;7.036;2023-06-14T08:29:08;28.40;95.50
15426;DHT22;7812;50.072;7.036;2023-06-14T08:31:34;28.80;95.30
15426;DHT22;7812;50.072;7.036;2023-06-14T08:34:00;28.90;94.60
15426;DHT22;7812;50.072;7.036;2023-06-14T08:36:26;29.50;94.50
15426;DHT22;7812;50.072;7.036;2023-06-14T08:38:51;30.00;92.40
15426;DHT22;7812;50.072;7.036;2023-06-14T08:41:23;31.30;91.40
15426;DHT22;7812;50.072;7.036;2023-06-14T08:43:50;32.00;90.90
15426;DHT22;7812;50.072;7.036;2023-06-14T08:46:18;31.50;89.10
15426;DHT22;7812;50.072;7.036;2023-06-14T08:48:51;33.10;87.40
15426;DHT22;7812;50.072;7.036;2023-06-14T08:51:21;31.00;83.00
15426;DHT22;7812;50.072;7.036;2023-06-14T08:53:52;28.50;85.20
15426;DHT22;7812;50.072;7.036;2023-06-14T08:56:18;27.80;87.30
15426;DHT22;7812;50.072;7.036;2023-06-14T08:58:47;28.10;87.50
15426;DHT22;7812;50.072;7.036;2023-06-14T09:01:14;28.70;87.30
15426;DHT22;7812;50.072;7.036;2023-06-14T09:03:43;29.60;85.10
15426;DHT22;7812;50.072;7.036;2023-06-14T09:06:10;30.20;84.80
15426;DHT22;7812;50.072;7.036;2023-06-14T09:08:45;29.00;83.40
15426;DHT22;7812;50.072;7.036;2023-06-14T09:11:13;28.70;84.10
15426;DHT22;7812;50.072;7.036;2023-06-14T09:13:40;29.40;83.30
15426;DHT22;7812;50.072;7.036;2023-06-14T09:16:07;29.00;82.30
15426;DHT22;7812;50.072;7.036;2023-06-14T09:18:37;29.20;82.60
15426;DHT22;7812;50.072;7.036;2023-06-14T09:21:02;30.00;82.10
15426;DHT22;7812;50.072;7.036;2023-06-14T09:23:28;29.80;80.80
15426;DHT22;7812;50.072;7.036;2023-06-14T09:25:54;28.80;81.20
15426;DHT22;7812;50.072;7.036;2023-06-14T09:28:20;28.10;82.20
15426;DHT22;7812;50.072;7.036;2023-06-14T09:30:48;28.20;84.20
15426;DHT22;7812;50.072;7.036;2023-06-14T09:33:17;29.40;82.00
15426;DHT22;7812;50.072;7.036;2023-06-14T09:35:46;28.40;81.00
15426;DHT22;7812;50.072;7.036;2023-06-14T09:38:12;29.30;82.00
15426;DHT22;7812;50.072;7.036;2023-06-14T09:40:37;29.70;82.20
15426;DHT22;7812;50.072;7.036;2023-06-14T09:43:06;30.70;79.90
15426;DHT22;7812;50.072;7.036;2023-06-14T09:45:35;30.50;78.00
15426;DHT22;7812;50.072;7.036;2023-06-14T09:48:01;31.40;80.00
15426;DHT22;7812;50.072;7.036;2023-06-14T09:50:27;31.50;75.60
15426;DHT22;7812;50.072;7.036;2023-06-14T09:52:57;30.60;77.60
15426;DHT22;7812;50.072;7.036;2023-06-14T09:55:28;30.80;75.90
15426;DHT22;7812;50.072;7.036;2023-06-14T09:57:57;31.60;77.80
15426;DHT22;7812;50.072;7.036;2023-06-14T10:00:23;33.40;75.80
15426;DHT22;7812;50.072;7.036;2023-06-14T10:02:54;34.10;71.90
15426;DHT22;7812;50.072;7.036;2023-06-14T10:05:23;33.50;69.80
15426;DHT22;7812;50.072;7.036;2023-06-14T10:07:53;32.40;68.70
15426;DHT22;7812;50.072;7.036;2023-06-14T10:59:04;30.80;68.80
15426;DHT22;7812;50.072;7.036;2023-06-14T11:01:37;28.40;69.80
15426;DHT22;7812;50.072;7.036;2023-06-14T11:04:10;27.50;70.00
15426;DHT22;7812;50.072;7.036;2023-06-14T11:06:48;27.80;71.40
15426;DHT22;7812;50.072;7.036;2023-06-14T11:12:01;29.40;69.40
15426;DHT22;7812;50.072;7.036;2023-06-14T11:14:31;29.80;68.60
15426;DHT22;7812;50.072;7.036;2023-06-14T11:16:57;29.80;68.70
15426;DHT22;7812;50.072;7.036;2023-06-14T11:19:22;29.00;69.80
15426;DHT22;7812;50.072;7.036;2023-06-14T11:21:48;28.60;68.20
15426;DHT22;7812;50.072;7.036;2023-06-14T11:24:14;29.20;70.00
15426;DHT22;7812;50.072;7.036;2023-06-14T11:26:40;29.50;69.70
15426;DHT22;7812;50.072;7.036;2023-06-14T11:29:06;27.60;68.30
15426;DHT22;7812;50.072;7.036;2023-06-14T11:31:31;28.10;69.60
15426;DHT22;7812;50.072;7.036;2023-06-14T11:33:59;28.90;72.00
15426;DHT22;7812;50.072;7.036;2023-06-14T11:36:29;30.20;69.10
15426;DHT22;7812;50.072;7.036;2023-06-14T11:39:03;30.10;69.20
15426;DHT22;7812;50.072;7.036;2023-06-14T11:41:37;28.70;71.10
15426;DHT22;7812;50.072;7.036;2023-06-14T11:44:03;29.60;70.30
15426;DHT22;7812;50.072;7.036;2023-06-14T11:46:29;30.70;69.40
15426;DHT22;7812;50.072;7.036;2023-06-14T11:48:55;30.10;66.30
15426;DHT22;7812;50.072;7.036;2023-06-14T11:51:20;28.70;67.80
15426;DHT22;7812;50.072;7.036;2023-06-14T11:53:46;28.60;69.20
15426;DHT22;7812;50.072;7.036;2023-06-14T11:56:13;29.30;69.40
15426;DHT22;7812;50.072;7.036;2023-06-14T11:58:39;28.00;68.60
15426;DHT22;7812;50.072;7.036;2023-06-14T12:01:05;26.90;69.20
15426;DHT22;7812;50.072;7.036;2023-06-14T12:03:31;27.00;69.60
15426;DHT22;7812;50.072;7.036;2023-06-14T12:06:08;26.80;69.80
15426;DHT22;7812;50.072;7.036;2023-06-14T12:08:35;27.60;69.80
15426;DHT22;7812;50.072;7.036;2023-06-14T12:11:05;27.90;70.50
15426;DHT22;7812;50.072;7.036;2023-06-14T12:13:31;28.60;69.30
15426;DHT22;7812;50.072;7.036;2023-06-14T12:15:57;28.30;68.80
15426;DHT22;7812;50.072;7.036;2023-06-14T12:18:36;28.70;68.80
15426;DHT22;7812;50.072;7.036;2023-06-14T12:21:04;29.00;70.20
15426;DHT22;7812;50.072;7.036;2023-06-14T12:23:48;29.10;67.50
15426;DHT22;7812;50.072;7.036;2023-06-14T12:26:15;27.70;67.60
15426;DHT22;7812;50.072;7.036;2023-06-14T12:28:42;28.50;67.90
15426;DHT22;7812;50.072;7.036;2023-06-14T12:31:09;28.10;67.50
15426;DHT22;7812;50.072;7.036;2023-06-14T12:33:34;27.40;67.00
15426;DHT22;7812;50.072;7.036;2023-06-14T12:36:03;27.40;67.70
15426;DHT22;7812;50.072;7.036;2023-06-14T12:38:29;27.20;67.90
15426;DHT22;7812;50.072;7.036;2023-06-14T12:40:55;27.40;69.40
15426;DHT22;7812;50.072;7.036;2023-06-14T12:43:21;28.40;68.00
15426;DHT22;7812;50.072;7.036;2023-06-14T12:45:46;29.00;69.00
15426;DHT22;7812;50.072;7.036;2023-06-14T12:48:12;29.40;67.70
15426;DHT22;7812;50.072;7.036;2023-06-14T12:50:38;28.50;68.90
15426;DHT22;7812;50.072;7.036;2023-06-14T12:53:03;26.90;69.80
15426;DHT22;7812;50.072;7.036;2023-06-14T12:55:29;26.40;71.90
15426;DHT22;7812;50.072;7.036;2023-06-14T12:57:55;26.40;71.90
15426;DHT22;7812;50.072;7.036;2023-06-14T13:00:21;26.40;74.20
15426;DHT22;7812;50.072;7.036;2023-06-14T13:02:47;26.60;73.20
15426;DHT22;7812;50.072;7.036;2023-06-14T13:05:13;25.70;74.20
15426;DHT22;7812;50.072;7.036;2023-06-14T13:07:38;25.40;74.40
15426;DHT22;7812;50.072;7.036;2023-06-14T13:10:04;26.00;73.00
15426;DHT22;7812;50.072;7.036;2023-06-14T13:12:30;25.70;72.50
15426;DHT22;7812;50.072;7.036;2023-06-14T13:14:56;25.30;73.40
15426;DHT22;7812;50.072;7.036;2023-06-14T13:17:22;25.40;74.70
15426;DHT22;7812;50.072;7.036;2023-06-14T13:19:48;25.90;75.70
15426;DHT22;7812;50.072;7.036;2023-06-14T13:22:13;26.40;74.90
15426;DHT22;7812;50.072;7.036;2023-06-14T13:24:39;26.30;74.80
15426;DHT22;7812;50.072;7.036;2023-06-14T13:27:05;25.50;74.80
15426;DHT22;7812;50.072;7.036;2023-06-14T13:29:31;25.00;75.90
15426;DHT22;7812;50.072;7.036;2023-06-14T13:31:59;24.90;76.50
15426;DHT22;7812;50.072;7.036;2023-06-14T13:34:25;24.80;76.70
15426;DHT22;7812;50.072;7.036;2023-06-14T13:36:51;25.10;77.10
15426;DHT22;7812;50.072;7.036;2023-06-14T13:39:16;25.30;76.50
15426;DHT22;7812;50.072;7.036;2023-06-14T13:41:42;25.10;75.50
15426;DHT22;7812;50.072;7.036;2023-06-14T13:44:07;24.30;77.30
15426;DHT22;7812;50.072;7.036;2023-06-14T13:46:34;24.40;78.40
15426;DHT22;7812;50.072;7.036;2023-06-14T13:48:59;24.10;78.50
15426;DHT22;7812;50.072;7.036;2023-06-14T13:51:26;24.40;78.40
15426;DHT22;7812;50.072;7.036;2023-06-14T13:53:53;24.50;78.10
15426;DHT22;7812;50.072;7.036;2023-06-14T13:56:19;24.30;78.30
15426;DHT22;7812;50.072;7.036;2023-06-14T13:58:45;24.30;78.50
15426;DHT22;7812;50.072;7.036;2023-06-14T14:01:23;24.50;78.30
15426;DHT22;7812;50.072;7.036;2023-06-14T14:03:51;24.00;77.80
15426;DHT22;7812;50.072;7.036;2023-06-14T14:06:16;23.60;78.90
15426;DHT22;7812;50.072;7.036;2023-06-14T14:08:42;23.50;80.00
15426;DHT22;7812;50.072;7.036;2023-06-14T14:11:09;23.60;80.10
15426;DHT22;7812;50.072;7.036;2023-06-14T14:13:35;23.50;79.80
15426;DHT22;7812;50.072;7.036;2023-06-14T14:16:05;23.50;79.40
15426;DHT22;7812;50.072;7.036;2023-06-14T14:18:31;23.60;79.60
15426;DHT22;7812;50.072;7.036;2023-06-14T14:20:58;23.40;79.90
15426;DHT22;7812;50.072;7.036;2023-06-14T14:23:24;23.20;79.80
15426;DHT22;7812;50.072;7.036;2023-06-14T14:25:50;23.20;80.00
15426;DHT22;7812;50.072;7.036;2023-06-14T14:28:15;23.00;78.90
15426;DHT22;7812;50.072;7.036;2023-06-14T14:30:42;23.00;80.20
15426;DHT22;7812;50.072;7.036;2023-06-14T14:33:08;23.00;80.00
15426;DHT22;7812;50.072;7.036;2023-06-14T14:35:34;23.20;79.90
15426;DHT22;7812;50.072;7.036;2023-06-14T14:38:00;23.30;80.80
15426;DHT22;7812;50.072;7.036;2023-06-14T14:40:44;23.30;79.90
15426;DHT22;7812;50.072;7.036;2023-06-14T14:43:10;23.60;79.90
15426;DHT22;7812;50.072;7.036;2023-06-14T14:45:36;23.60;80.30
15426;DHT22;7812;50.072;7.036;2023-06-14T14:48:02;23.40;80.10
15426;DHT22;7812;50.072;7.036;2023-06-14T14:50:28;23.60;81.50
15426;DHT22;7812;50.072;7.036;2023-06-14T14:56:03;23.50;80.90
15426;DHT22;7812;50.072;7.036;2023-06-14T14:58:29;23.60;81.70
15426;DHT22;7812;50.072;7.036;2023-06-14T15:00:55;23.50;81.60
15426;DHT22;7812;50.072;7.036;2023-06-14T15:03:20;23.20;82.50
15426;DHT22;7812;50.072;7.036;2023-06-14T15:05:47;23.20;82.60
15426;DHT22;7812;50.072;7.036;2023-06-14T15:08:12;23.20;82.00
15426;DHT22;7812;50.072;7.036;2023-06-14T15:10:39;23.10;81.20
15426;DHT22;7812;50.072;7.036;2023-06-14T15:13:07;23.20;81.70
15426;DHT22;7812;50.072;7.036;2023-06-14T15:15:33;23.40;81.00
15426;DHT22;7812;50.072;7.036;2023-06-14T15:17:59;23.30;81.90
15426;DHT22;7812;50.072;7.036;2023-06-14T15:20:25;23.30;82.00
15426;DHT22;7812;50.072;7.036;2023-06-14T15:22:51;23.30;82.60
15426;DHT22;7812;50.072;7.036;2023-06-14T15:25:18;23.60;82.60
15426;DHT22;7812;50.072;7.036;2023-06-14T15:27:44;23.50;82.60
15426;DHT22;7812;50.072;7.036;2023-06-14T15:30:10;23.70;82.30
15426;DHT22;7812;50.072;7.036;2023-06-14T15:32:36;23.70;81.90
15426;DHT22;7812;50.072;7.036;2023-06-14T15:35:02;23.80;82.70
15426;DHT22;7812;50.072;7.036;2023-06-14T15:37:28;23.60;81.30
15426;DHT22;7812;50.072;7.036;2023-06-14T15:39:53;23.70;82.40
15426;DHT22;7812;50.072;7.036;2023-06-14T15:42:19;23.90;81.90
15426;DHT22;7812;50.072;7.036;2023-06-14T15:44:44;23.70;82.30
15426;DHT22;7812;50.072;7.036;2023-06-14T15:47:12;23.90;83.40
15426;DHT22;7812;50.072;7.036;2023-06-14T15:49:38;23.80;80.70
15426;DHT22;7812;50.072;7.036;2023-06-14T15:52:04;23.70;81.40
15426;DHT22;7812;50.072;7.036;2023-06-14T15:54:30;23.80;81.70
15426;DHT22;7812;50.072;7.036;2023-06-14T15:56:56;23.70;81.50
15426;DHT22;7812;50.072;7.036;2023-06-14T15:59:21;23.60;82.20
15426;DHT22;7812;50.072;7.036;2023-06-14T16:01:47;23.40;81.70
15426;DHT22;7812;50.072;7.036;2023-06-14T16:04:13;23.10;83.40
15426;DHT22;7812;50.072;7.036;2023-06-14T16:06:38;22.90;83.80
15426;DHT22;7812;50.072;7.036;2023-06-14T16:09:04;22.90;83.30
15426;DHT22;7812;50.072;7.036;2023-06-14T16:11:30;22.70;83.10
15426;DHT22;7812;50.072;7.036;2023-06-14T16:13:55;22.60;83.80
15426;DHT22;7812;50.072;7.036;2023-06-14T16:16:22;22.70;83.60
15426;DHT22;7812;50.072;7.036;2023-06-14T16:18:48;22.80;84.10
15426;DHT22;7812;50.072;7.036;2023-06-14T16:21:14;22.90;83.70
15426;DHT22;7812;50.072;7.036;2023-06-14T16:23:41;23.00;83.50
15426;DHT22;7812;50.072;7.036;2023-06-14T16:26:10;23.00;82.60
15426;DHT22;7812;50.072;7.036;2023-06-14T16:28:37;23.10;82.00
15426;DHT22;7812;50.072;7.036;2023-06-14T16:31:02;22.90;82.30
15426;DHT22;7812;50.072;7.036;2023-06-14T16:33:28;22.70;80.30
15426;DHT22;7812;50.072;7.036;2023-06-14T16:35:54;22.70;80.90
15426;DHT22;7812;50.072;7.036;2023-06-14T16:38:20;22.90;81.40
15426;DHT22;7812;50.072;7.036;2023-06-14T16:40:47;22.90;81.90
15426;DHT22;7812;50.072;7.036;2023-06-14T16:43:13;23.00;82.90
15426;DHT22;7812;50.072;7.036;2023-06-14T16:45:38;22.90;83.40
15426;DHT22;7812;50.072;7.036;2023-06-14T16:48:04;22.80;84.40
15426;DHT22;7812;50.072;7.036;2023-06-14T16:50:30;22.70;84.40